»·PEaware :: N148WT KSNA-KRNM

N148WT :: KSNA-KRNM

FLIGHT INFORMATION

Flight Status: Arrived
Operator: Privately registered:
United States
More flights under this callsign
Pilot: Vlad D. (11271)
Aircraft: Unknown
(B60T)
More flights by this aircraft type
Origin: KSNA John Wayne-Orange Co
United States
Destination: KRNM Ramona
United States
More flights between these airports :: More routes between these airports
Route: V25 PACIF V208 JLI
File this flight plan on PilotEdge
Remarks: I-4 Rating
Altitude:
(Current/Filed)
7,000ft
Speed:
(Current/Filed)
180kts
Departed: 23-May-16 11:59 AM
Arrived: 23-May-16 12:25 PM
Distance/Time
Traveled:
61nm/0:25
Distance/Time
To Go:
Arrived

Flight Plot

Page will automatically refresh every two minutes.


Map Options




Map Legend


Flown Route
Filed Route
Departure Airport
Arrival Airport
Navaid (VOR, NDB)
Fix

Horizontal Profiles

Position Reports

Time Latitude Longitude Heading Altitude Ground
Speed
23-May-16 11:32 33.674968 -117.871518 219 59ft 0kts
23-May-16 11:33 33.674966 -117.871520 219 59ft 0kts
23-May-16 11:34 33.674964 -117.871522 219 59ft 0kts
23-May-16 11:35 33.674962 -117.871524 219 59ft 0kts
23-May-16 11:36 33.674961 -117.871526 219 59ft 0kts
23-May-16 11:37 33.674959 -117.871527 219 59ft 0kts
23-May-16 11:38 33.674957 -117.871529 219 59ft 0kts
23-May-16 11:39 33.674955 -117.871531 219 59ft 0kts
23-May-16 11:40 33.674954 -117.871533 219 59ft 0kts
23-May-16 11:41 33.674952 -117.871534 219 59ft 0kts
23-May-16 11:42 33.674951 -117.871536 219 59ft 0kts
23-May-16 11:43 33.674949 -117.871537 219 59ft 0kts
23-May-16 11:44 33.674947 -117.871539 219 59ft 0kts
23-May-16 11:45 33.674946 -117.871541 219 59ft 0kts
23-May-16 11:46 33.674944 -117.871542 219 59ft 0kts
23-May-16 11:47 33.674942 -117.871544 219 59ft 0kts
23-May-16 11:48 33.674940 -117.871546 219 59ft 0kts
23-May-16 11:49 33.674939 -117.871548 219 59ft 0kts
23-May-16 11:50 33.674889 -117.871579 195 59ft 0kts
23-May-16 11:51 33.674706 -117.870985 23 59ft 5kts
23-May-16 11:52 33.676576 -117.869848 26 59ft 6kts
23-May-16 11:53 33.678651 -117.868566 26 59ft 9kts
23-May-16 11:54 33.680855 -117.867201 30 59ft 8kts
23-May-16 11:55 33.680770 -117.866307 116 59ft 4kts
23-May-16 11:56 33.680054 -117.866075 206 59ft 17kts
23-May-16 11:57 33.652737 -117.878314 191 1088ft 117kts
23-May-16 11:58 33.620170 -117.888089 187 2786ft 134kts
23-May-16 11:59 33.579874 -117.894427 187 4631ft 151kts
23-May-16 12:00 33.537931 -117.900759 187 6590ft 146kts
23-May-16 12:01 33.490439 -117.907220 187 7001ft 196kts
23-May-16 12:02 33.435962 -117.913992 177 6991ft 196kts
23-May-16 12:03 33.382424 -117.900145 165 6998ft 196kts
23-May-16 12:04 33.342871 -117.860020 115 7003ft 199kts
23-May-16 12:05 33.312721 -117.804627 132 6998ft 198kts
23-May-16 12:06 33.276848 -117.755375 101 7003ft 199kts
23-May-16 12:07 33.288216 -117.690832 80 7003ft 200kts
23-May-16 12:08 33.288645 -117.624349 97 7005ft 200kts
23-May-16 12:09 33.277135 -117.559194 104 7006ft 200kts
23-May-16 12:10 33.263494 -117.494470 103 7007ft 200kts
23-May-16 12:11 33.252091 -117.429025 100 7007ft 201kts
23-May-16 12:12 33.242862 -117.362543 99 7003ft 206kts
23-May-16 12:13 33.234289 -117.295099 99 6998ft 203kts
23-May-16 12:14 33.225690 -117.228180 99 7001ft 207kts
23-May-16 12:15 33.212836 -117.161973 111 6996ft 202kts
23-May-16 12:16 33.192682 -117.099193 112 7004ft 206kts
23-May-16 12:17 33.172214 -117.035727 112 7001ft 203kts
23-May-16 12:18 33.151368 -116.971380 112 5678ft 204kts
23-May-16 12:19 33.128624 -116.915621 130 4996ft 162kts
23-May-16 12:20 33.102483 -116.878772 136 4908ft 139kts
23-May-16 12:21 33.061509 -116.877550 189 3705ft 129kts
23-May-16 12:22 33.036168 -116.895985 274 1869ft 112kts
23-May-16 12:23 33.039575 -116.918308 282 1396ft 11kts
23-May-16 12:24 33.040280 -116.919881 8 1396ft 0kts
23-May-16 12:25 33.040372 -116.918849 97 1396ft 8kts
23-May-16 12:26 33.040533 -116.917325 11 1396ft 1kts
23-May-16 12:27 33.041143 -116.917633 341 1396ft 3kts
23-May-16 12:28 33.041672 -116.917990 355 1396ft 0kts
23-May-16 12:29 33.041672 -116.917990 355 1396ft 0kts

Navigation Log

Ident Type
Flight plan parsing failed, navigation log unavailable